Saint Louis, MO

6:01 PM CDT on August 02, 2015 (GMT -0500)
Ross Ave | | Change Station
CLOSE
Current Station
Personal Weather Station
Location: St. Louis, MO
Elevation: 551 ft
Nearby Weather Stations

Elev 551 ft 38.68 °N, 90.46 °W | Updated 2 seconds ago

Mostly Cloudy
Mostly Cloudy
90.1 °F
Feels Like 95 °F
N
0.0
Wind Variable Wind from NW
Gusts 0.0 mph

Today
High -- | Low -- °F
--% Chance of Precip.
Yesterday
High -- | Low -- °F
Precip. -- in
6:03 AM 8:11 PM
Waning Gibbous, 91% visible
Pressure 29.82 in
Visibility 10.0 miles
Clouds Scattered Clouds 6000 ft
Scattered Clouds 12000 ft
Mostly Cloudy 25000 ft
Heat Index 95 °F
Dew Point 69 °F
Humidity 50%
Rainfall 0.00 in
Snow Depth Not available.
UV 1 out of 12
Pollen 7.50 out of 12
Air Quality Not available.
Flu Activity Not available.
METAR KSTL 022251Z 25010KT 10SM SCT060 SCT120 BKN250 34/20 A2986 RMK AO2 SLP098 T03390200

More Conditions Fewer Conditions

Pressure 29.82 in
Visibility 10.0 miles
Clouds Scattered Clouds 6000 ft
Scattered Clouds 12000 ft
Mostly Cloudy 25000 ft
Heat Index 95 °F
Dew Point 69 °F
Humidity 50%
Rainfall 0.00 in
Snow Depth Not available.
UV 1 out of 12
Pollen 7.50 out of 12
Air Quality Not available.
Flu Activity Not available.
METAR KSTL 022251Z 25010KT 10SM SCT060 SCT120 BKN250 34/20 A2986 RMK AO2 SLP098 T03390200

More Conditions Fewer Conditions

10-Day Weather Forecast

×

Almanac

Astronomy

Aug. 02, 2015 Rise Set
Actual Time
Civil Twilight
Nautical Twilight
Astronomical Twilight
Moon
Length of Visible Light
Length of Day
Tomorrow will be .
, % of the Moon is Illuminated

Today's Extremes

State Highs State Lows

Community

WunderPhotos

Upload Photos

1,843,409 photos uploaded!

WunderBlogs® & News

Nearby

Air Quality

  Air Quality AQ Index Pollutant
Not available.

Snow Depth

Station Depth Elevation

Earthquake Activity

City Distance Mag. Time & Date
Minimum magnitude displayed is 2.5.

Coastal Water Temperatures

Place Temperature

Stations

Nearby Weather Stations

Station Location Temp. Windchill Dew Point Humidity Wind Precip. Elev Updated Type